sensor_id;sensor_type;location;lat;lon;timestamp;P1;durP1;ratioP1;P2;durP2;ratioP2
3633;SDS011;1833;42.718;23.270;2023-04-03T03:02:29;24.73;;;22.87;;
3633;SDS011;1833;42.718;23.270;2023-04-03T03:05:04;25.87;;;23.40;;
3633;SDS011;1833;42.718;23.270;2023-04-03T03:07:52;24.10;;;22.17;;
3633;SDS011;1833;42.718;23.270;2023-04-03T03:13:36;26.30;;;24.00;;
3633;SDS011;1833;42.718;23.270;2023-04-03T03:16:40;24.50;;;22.50;;
3633;SDS011;1833;42.718;23.270;2023-04-03T05:21:47;27.97;;;25.40;;
3633;SDS011;1833;42.718;23.270;2023-04-03T05:24:40;28.80;;;26.20;;
3633;SDS011;1833;42.718;23.270;2023-04-03T05:30:44;28.30;;;25.30;;
3633;SDS011;1833;42.718;23.270;2023-04-03T05:33:17;29.67;;;26.70;;
3633;SDS011;1833;42.718;23.270;2023-04-03T05:35:49;28.53;;;25.73;;
3633;SDS011;1833;42.718;23.270;2023-04-03T05:38:27;28.87;;;26.13;;
3633;SDS011;1833;42.718;23.270;2023-04-03T05:40:56;31.10;;;28.33;;
3633;SDS011;1833;42.718;23.270;2023-04-03T05:43:40;32.77;;;29.23;;
3633;SDS011;1833;42.718;23.270;2023-04-03T05:47:29;32.83;;;28.63;;
3633;SDS011;1833;42.718;23.270;2023-04-03T05:50:37;35.93;;;30.30;;
3633;SDS011;1833;42.718;23.270;2023-04-03T05:53:16;45.03;;;30.60;;
3633;SDS011;1833;42.718;23.270;2023-04-03T05:56:03;36.73;;;30.13;;
3633;SDS011;1833;42.718;23.270;2023-04-03T05:58:30;60.27;;;38.20;;
3633;SDS011;1833;42.718;23.270;2023-04-03T06:00:58;34.03;;;30.60;;
3633;SDS011;1833;42.718;23.270;2023-04-03T06:03:25;37.73;;;29.00;;
3633;SDS011;1833;42.718;23.270;2023-04-03T06:05:53;40.40;;;28.83;;
3633;SDS011;1833;42.718;23.270;2023-04-03T06:08:20;39.63;;;30.60;;
3633;SDS011;1833;42.718;23.270;2023-04-03T06:10:48;35.00;;;29.73;;
3633;SDS011;1833;42.718;23.270;2023-04-03T06:13:18;31.40;;;28.20;;
3633;SDS011;1833;42.718;23.270;2023-04-03T06:15:45;33.67;;;29.67;;
3633;SDS011;1833;42.718;23.270;2023-04-03T06:18:13;31.63;;;28.37;;
3633;SDS011;1833;42.718;23.270;2023-04-03T06:20:41;36.17;;;29.17;;
3633;SDS011;1833;42.718;23.270;2023-04-03T06:23:08;31.47;;;28.13;;
3633;SDS011;1833;42.718;23.270;2023-04-03T06:25:35;30.93;;;27.63;;
3633;SDS011;1833;42.718;23.270;2023-04-03T06:28:03;32.73;;;29.33;;
3633;SDS011;1833;42.718;23.270;2023-04-03T06:30:32;30.57;;;27.57;;
3633;SDS011;1833;42.718;23.270;2023-04-03T06:33:00;30.90;;;27.60;;
3633;SDS011;1833;42.718;23.270;2023-04-03T06:35:27;33.13;;;28.90;;
3633;SDS011;1833;42.718;23.270;2023-04-03T06:37:55;33.37;;;29.00;;
3633;SDS011;1833;42.718;23.270;2023-04-03T06:40:23;33.37;;;30.00;;
3633;SDS011;1833;42.718;23.270;2023-04-03T06:42:51;44.30;;;31.03;;
3633;SDS011;1833;42.718;23.270;2023-04-03T06:45:18;52.73;;;30.77;;
3633;SDS011;1833;42.718;23.270;2023-04-03T06:47:48;32.83;;;29.50;;
3633;SDS011;1833;42.718;23.270;2023-04-03T06:50:15;37.80;;;30.57;;
3633;SDS011;1833;42.718;23.270;2023-04-03T06:52:42;36.50;;;30.97;;
3633;SDS011;1833;42.718;23.270;2023-04-03T06:55:10;40.83;;;32.87;;
3633;SDS011;1833;42.718;23.270;2023-04-03T06:57:37;41.43;;;31.73;;
3633;SDS011;1833;42.718;23.270;2023-04-03T07:00:05;34.50;;;31.10;;
3633;SDS011;1833;42.718;23.270;2023-04-03T07:02:34;35.53;;;31.93;;
3633;SDS011;1833;42.718;23.270;2023-04-03T07:05:03;37.50;;;32.60;;
3633;SDS011;1833;42.718;23.270;2023-04-03T07:07:31;34.83;;;31.23;;
3633;SDS011;1833;42.718;23.270;2023-04-03T07:09:59;35.20;;;29.47;;
3633;SDS011;1833;42.718;23.270;2023-04-03T07:12:26;31.77;;;28.50;;
3633;SDS011;1833;42.718;23.270;2023-04-03T07:14:53;31.73;;;28.50;;
3633;SDS011;1833;42.718;23.270;2023-04-03T07:17:21;31.47;;;28.40;;
3633;SDS011;1833;42.718;23.270;2023-04-03T07:19:48;33.53;;;30.10;;
3633;SDS011;1833;42.718;23.270;2023-04-03T07:22:17;40.00;;;28.90;;
3633;SDS011;1833;42.718;23.270;2023-04-03T07:24:44;38.17;;;30.87;;
3633;SDS011;1833;42.718;23.270;2023-04-03T07:27:12;41.37;;;29.40;;
3633;SDS011;1833;42.718;23.270;2023-04-03T07:29:39;37.67;;;29.13;;
3633;SDS011;1833;42.718;23.270;2023-04-03T07:32:08;31.43;;;28.50;;
3633;SDS011;1833;42.718;23.270;2023-04-03T07:34:35;35.00;;;27.03;;
3633;SDS011;1833;42.718;23.270;2023-04-03T07:37:02;30.40;;;27.37;;
3633;SDS011;1833;42.718;23.270;2023-04-03T07:39:31;31.87;;;28.37;;
3633;SDS011;1833;42.718;23.270;2023-04-03T07:41:58;30.20;;;27.00;;
3633;SDS011;1833;42.718;23.270;2023-04-03T07:44:27;29.83;;;26.93;;
3633;SDS011;1833;42.718;23.270;2023-04-03T07:46:54;30.10;;;27.30;;
3633;SDS011;1833;42.718;23.270;2023-04-03T07:49:21;29.20;;;26.40;;
3633;SDS011;1833;42.718;23.270;2023-04-03T07:51:49;32.33;;;29.10;;
3633;SDS011;1833;42.718;23.270;2023-04-03T07:54:16;31.50;;;28.30;;
3633;SDS011;1833;42.718;23.270;2023-04-03T07:56:45;32.47;;;29.00;;
3633;SDS011;1833;42.718;23.270;2023-04-03T07:59:13;33.27;;;29.87;;
3633;SDS011;1833;42.718;23.270;2023-04-03T08:01:40;32.30;;;28.93;;
3633;SDS011;1833;42.718;23.270;2023-04-03T08:04:07;32.43;;;29.30;;
3633;SDS011;1833;42.718;23.270;2023-04-03T08:06:35;33.00;;;29.63;;
3633;SDS011;1833;42.718;23.270;2023-04-03T08:09:03;41.40;;;29.73;;
3633;SDS011;1833;42.718;23.270;2023-04-03T08:11:30;36.23;;;30.50;;
3633;SDS011;1833;42.718;23.270;2023-04-03T08:13:59;31.90;;;28.60;;
3633;SDS011;1833;42.718;23.270;2023-04-03T08:16:27;32.27;;;27.97;;
3633;SDS011;1833;42.718;23.270;2023-04-03T08:18:55;38.40;;;29.20;;
3633;SDS011;1833;42.718;23.270;2023-04-03T08:21:22;34.63;;;30.90;;
3633;SDS011;1833;42.718;23.270;2023-04-03T08:23:50;38.93;;;32.33;;
3633;SDS011;1833;42.718;23.270;2023-04-03T08:26:18;35.80;;;29.93;;
3633;SDS011;1833;42.718;23.270;2023-04-03T08:28:46;33.83;;;30.43;;
3633;SDS011;1833;42.718;23.270;2023-04-03T08:31:16;34.73;;;31.33;;
3633;SDS011;1833;42.718;23.270;2023-04-03T08:33:45;36.23;;;32.30;;
3633;SDS011;1833;42.718;23.270;2023-04-03T08:36:17;36.30;;;32.33;;
3633;SDS011;1833;42.718;23.270;2023-04-03T08:38:45;39.93;;;33.20;;
3633;SDS011;1833;42.718;23.270;2023-04-03T08:41:14;37.63;;;33.23;;
3633;SDS011;1833;42.718;23.270;2023-04-03T08:43:46;37.23;;;30.50;;
3633;SDS011;1833;42.718;23.270;2023-04-03T08:46:20;35.87;;;31.93;;
3633;SDS011;1833;42.718;23.270;2023-04-03T08:48:51;34.43;;;30.90;;
3633;SDS011;1833;42.718;23.270;2023-04-03T08:51:19;68.87;;;50.03;;
3633;SDS011;1833;42.718;23.270;2023-04-03T08:53:50;92.10;;;60.60;;
3633;SDS011;1833;42.718;23.270;2023-04-03T08:56:20;37.70;;;33.77;;
3633;SDS011;1833;42.718;23.270;2023-04-03T08:58:49;46.80;;;41.67;;
3633;SDS011;1833;42.718;23.270;2023-04-03T09:01:19;94.57;;;65.47;;
3633;SDS011;1833;42.718;23.270;2023-04-03T09:03:49;100.23;;;65.30;;
3633;SDS011;1833;42.718;23.270;2023-04-03T09:06:18;48.10;;;34.57;;
3633;SDS011;1833;42.718;23.270;2023-04-03T09:08:47;41.63;;;31.93;;
3633;SDS011;1833;42.718;23.270;2023-04-03T09:11:19;45.17;;;32.90;;
3633;SDS011;1833;42.718;23.270;2023-04-03T09:13:49;36.70;;;32.87;;
3633;SDS011;1833;42.718;23.270;2023-04-03T09:16:25;37.60;;;33.53;;
3633;SDS011;1833;42.718;23.270;2023-04-03T09:18:57;38.30;;;34.37;;
3633;SDS011;1833;42.718;23.270;2023-04-03T09:21:29;42.30;;;34.83;;
3633;SDS011;1833;42.718;23.270;2023-04-03T09:23:58;51.63;;;34.87;;
3633;SDS011;1833;42.718;23.270;2023-04-03T09:26:29;40.23;;;35.07;;
3633;SDS011;1833;42.718;23.270;2023-04-03T09:28:58;40.77;;;34.17;;
3633;SDS011;1833;42.718;23.270;2023-04-03T09:31:28;48.03;;;33.83;;
3633;SDS011;1833;42.718;23.270;2023-04-03T09:33:59;41.03;;;33.67;;
3633;SDS011;1833;42.718;23.270;2023-04-03T09:36:38;36.20;;;32.60;;
3633;SDS011;1833;42.718;23.270;2023-04-03T09:39:08;63.67;;;42.80;;
3633;SDS011;1833;42.718;23.270;2023-04-03T09:41:37;48.00;;;39.20;;
3633;SDS011;1833;42.718;23.270;2023-04-03T09:44:17;38.37;;;33.23;;
3633;SDS011;1833;42.718;23.270;2023-04-03T09:46:46;35.40;;;31.80;;
3633;SDS011;1833;42.718;23.270;2023-04-03T09:49:16;35.93;;;32.07;;
3633;SDS011;1833;42.718;23.270;2023-04-03T09:51:45;39.30;;;33.50;;
3633;SDS011;1833;42.718;23.270;2023-04-03T09:54:29;39.47;;;33.80;;
3633;SDS011;1833;42.718;23.270;2023-04-03T09:56:58;41.67;;;34.20;;
3633;SDS011;1833;42.718;23.270;2023-04-03T09:59:28;35.17;;;31.77;;
3633;SDS011;1833;42.718;23.270;2023-04-03T10:01:58;38.10;;;34.20;;
3633;SDS011;1833;42.718;23.270;2023-04-03T10:04:27;42.83;;;36.20;;
3633;SDS011;1833;42.718;23.270;2023-04-03T10:07:03;47.80;;;34.30;;
3633;SDS011;1833;42.718;23.270;2023-04-03T10:09:54;38.87;;;34.53;;
3633;SDS011;1833;42.718;23.270;2023-04-03T10:12:23;43.53;;;35.20;;
3633;SDS011;1833;42.718;23.270;2023-04-03T10:14:54;42.37;;;33.43;;
3633;SDS011;1833;42.718;23.270;2023-04-03T10:17:23;37.40;;;33.20;;
3633;SDS011;1833;42.718;23.270;2023-04-03T10:19:56;33.77;;;30.47;;
3633;SDS011;1833;42.718;23.270;2023-04-03T10:22:26;35.77;;;31.80;;
3633;SDS011;1833;42.718;23.270;2023-04-03T10:24:59;34.50;;;31.40;;
3633;SDS011;1833;42.718;23.270;2023-04-03T10:27:35;36.13;;;32.60;;
3633;SDS011;1833;42.718;23.270;2023-04-03T10:30:08;35.00;;;31.43;;
3633;SDS011;1833;42.718;23.270;2023-04-03T10:32:50;34.70;;;31.07;;
3633;SDS011;1833;42.718;23.270;2023-04-03T10:35:25;40.40;;;32.50;;
3633;SDS011;1833;42.718;23.270;2023-04-03T10:38:00;35.20;;;31.50;;
3633;SDS011;1833;42.718;23.270;2023-04-03T10:40:29;35.80;;;31.90;;
3633;SDS011;1833;42.718;23.270;2023-04-03T10:42:59;42.30;;;31.90;;
3633;SDS011;1833;42.718;23.270;2023-04-03T10:45:30;32.50;;;29.23;;
3633;SDS011;1833;42.718;23.270;2023-04-03T10:48:01;34.03;;;30.53;;
3633;SDS011;1833;42.718;23.270;2023-04-03T10:50:39;34.13;;;29.77;;
3633;SDS011;1833;42.718;23.270;2023-04-03T10:53:12;32.27;;;28.70;;
3633;SDS011;1833;42.718;23.270;2023-04-03T10:55:43;32.43;;;29.30;;
3633;SDS011;1833;42.718;23.270;2023-04-03T10:58:13;34.00;;;28.30;;
3633;SDS011;1833;42.718;23.270;2023-04-03T11:00:46;32.80;;;29.50;;
3633;SDS011;1833;42.718;23.270;2023-04-03T11:03:15;31.30;;;28.13;;
3633;SDS011;1833;42.718;23.270;2023-04-03T11:05:47;31.70;;;28.53;;
3633;SDS011;1833;42.718;23.270;2023-04-03T11:08:19;32.47;;;29.27;;
3633;SDS011;1833;42.718;23.270;2023-04-03T11:10:49;31.57;;;28.50;;
3633;SDS011;1833;42.718;23.270;2023-04-03T11:13:18;31.03;;;28.07;;
3633;SDS011;1833;42.718;23.270;2023-04-03T11:15:48;31.27;;;28.37;;
3633;SDS011;1833;42.718;23.270;2023-04-03T11:18:17;30.70;;;27.87;;
3633;SDS011;1833;42.718;23.270;2023-04-03T11:20:50;30.80;;;27.77;;
3633;SDS011;1833;42.718;23.270;2023-04-03T11:23:21;31.07;;;28.17;;
3633;SDS011;1833;42.718;23.270;2023-04-03T11:25:53;29.70;;;27.10;;
3633;SDS011;1833;42.718;23.270;2023-04-03T11:28:21;34.37;;;27.87;;
3633;SDS011;1833;42.718;23.270;2023-04-03T11:30:49;34.33;;;27.40;;
3633;SDS011;1833;42.718;23.270;2023-04-03T11:33:32;30.33;;;26.47;;
3633;SDS011;1833;42.718;23.270;2023-04-03T11:36:06;29.87;;;27.17;;
3633;SDS011;1833;42.718;23.270;2023-04-03T11:38:36;37.00;;;33.40;;
3633;SDS011;1833;42.718;23.270;2023-04-03T11:41:07;41.90;;;37.30;;
3633;SDS011;1833;42.718;23.270;2023-04-03T11:43:39;45.37;;;36.40;;
3633;SDS011;1833;42.718;23.270;2023-04-03T11:46:07;47.23;;;39.93;;
3633;SDS011;1833;42.718;23.270;2023-04-03T11:48:42;47.30;;;40.23;;
3633;SDS011;1833;42.718;23.270;2023-04-03T11:53:54;47.80;;;42.90;;
3633;SDS011;1833;42.718;23.270;2023-04-03T11:56:32;45.63;;;40.93;;
3633;SDS011;1833;42.718;23.270;2023-04-03T11:59:16;46.07;;;41.40;;
3633;SDS011;1833;42.718;23.270;2023-04-03T12:01:45;43.80;;;39.20;;
3633;SDS011;1833;42.718;23.270;2023-04-03T12:04:13;48.47;;;43.57;;
3633;SDS011;1833;42.718;23.270;2023-04-03T12:09:26;46.80;;;42.47;;
3633;SDS011;1833;42.718;23.270;2023-04-03T12:11:57;46.30;;;41.40;;
3633;SDS011;1833;42.718;23.270;2023-04-03T12:14:25;47.17;;;42.47;;
3633;SDS011;1833;42.718;23.270;2023-04-03T12:16:54;48.23;;;43.53;;
3633;SDS011;1833;42.718;23.270;2023-04-03T12:19:30;45.50;;;40.80;;
3633;SDS011;1833;42.718;23.270;2023-04-03T12:22:05;44.90;;;40.40;;
3633;SDS011;1833;42.718;23.270;2023-04-03T12:24:35;47.33;;;42.07;;
3633;SDS011;1833;42.718;23.270;2023-04-03T12:27:21;45.67;;;41.27;;
3633;SDS011;1833;42.718;23.270;2023-04-03T12:29:52;49.13;;;44.17;;
3633;SDS011;1833;42.718;23.270;2023-04-03T12:32:24;48.97;;;44.30;;
3633;SDS011;1833;42.718;23.270;2023-04-03T12:34:56;45.87;;;41.30;;
3633;SDS011;1833;42.718;23.270;2023-04-03T12:37:37;45.07;;;40.63;;
3633;SDS011;1833;42.718;23.270;2023-04-03T12:40:13;51.30;;;38.73;;
3633;SDS011;1833;42.718;23.270;2023-04-03T12:43:20;45.07;;;40.57;;
3633;SDS011;1833;42.718;23.270;2023-04-03T12:49:32;42.47;;;38.50;;
3633;SDS011;1833;42.718;23.270;2023-04-03T12:52:17;45.63;;;38.70;;
3633;SDS011;1833;42.718;23.270;2023-04-03T13:10:01;42.20;;;38.20;;
3633;SDS011;1833;42.718;23.270;2023-04-03T13:15:43;44.37;;;40.50;;
3633;SDS011;1833;42.718;23.270;2023-04-03T13:58:52;37.20;;;34.50;;
3633;SDS011;1833;42.718;23.270;2023-04-03T14:01:45;39.13;;;36.27;;
3633;SDS011;1833;42.718;23.270;2023-04-03T14:04:16;41.60;;;38.37;;
3633;SDS011;1833;42.718;23.270;2023-04-03T14:06:44;39.33;;;36.43;;
3633;SDS011;1833;42.718;23.270;2023-04-03T14:09:14;41.30;;;38.10;;
3633;SDS011;1833;42.718;23.270;2023-04-03T15:37:58;37.00;;;34.30;;
3633;SDS011;1833;42.718;23.270;2023-04-03T15:40:41;34.20;;;31.90;;
3633;SDS011;1833;42.718;23.270;2023-04-03T15:43:41;35.93;;;33.10;;
3633;SDS011;1833;42.718;23.270;2023-04-03T15:58:30;36.87;;;34.23;;
3633;SDS011;1833;42.718;23.270;2023-04-03T16:01:15;36.50;;;33.90;;
3633;SDS011;1833;42.718;23.270;2023-04-03T17:52:59;35.00;;;32.10;;
3633;SDS011;1833;42.718;23.270;2023-04-03T17:55:31;35.57;;;32.87;;
3633;SDS011;1833;42.718;23.270;2023-04-03T18:01:08;34.37;;;31.83;;
3633;SDS011;1833;42.718;23.270;2023-04-03T18:03:51;37.17;;;34.27;;
3633;SDS011;1833;42.718;23.270;2023-04-03T18:06:58;36.60;;;33.90;;
3633;SDS011;1833;42.718;23.270;2023-04-03T18:30:36;34.40;;;31.90;;
3633;SDS011;1833;42.718;23.270;2023-04-03T18:36:10;34.13;;;31.53;;
3633;SDS011;1833;42.718;23.270;2023-04-03T18:38:41;33.67;;;31.20;;
3633;SDS011;1833;42.718;23.270;2023-04-03T18:41:26;35.20;;;32.37;;
3633;SDS011;1833;42.718;23.270;2023-04-03T18:44:10;33.00;;;30.70;;
